sensor_id;sensor_type;location;lat;lon;timestamp;P1;durP1;ratioP1;P2;durP2;ratioP2
18677;SDS011;9469;51.114;13.914;2024-03-17T00:03:44;9.37;;;3.07;;
18677;SDS011;9469;51.114;13.914;2024-03-17T00:08:48;7.00;;;3.23;;
18677;SDS011;9469;51.114;13.914;2024-03-17T00:13:52;4.57;;;2.60;;
18677;SDS011;9469;51.114;13.914;2024-03-17T00:18:59;4.53;;;2.97;;
18677;SDS011;9469;51.114;13.914;2024-03-17T00:24:03;7.93;;;2.90;;
18677;SDS011;9469;51.114;13.914;2024-03-17T00:29:09;2.80;;;2.60;;
18677;SDS011;9469;51.114;13.914;2024-03-17T00:34:15;5.13;;;3.17;;
18677;SDS011;9469;51.114;13.914;2024-03-17T00:39:19;8.57;;;3.03;;
18677;SDS011;9469;51.114;13.914;2024-03-17T00:44:24;5.30;;;3.13;;
18677;SDS011;9469;51.114;13.914;2024-03-17T00:49:30;8.30;;;2.90;;
18677;SDS011;9469;51.114;13.914;2024-03-17T00:54:34;5.03;;;3.13;;
18677;SDS011;9469;51.114;13.914;2024-03-17T00:59:38;8.77;;;3.17;;
18677;SDS011;9469;51.114;13.914;2024-03-17T01:04:46;8.87;;;3.60;;
18677;SDS011;9469;51.114;13.914;2024-03-17T01:09:50;5.03;;;3.03;;
18677;SDS011;9469;51.114;13.914;2024-03-17T01:14:55;6.33;;;3.60;;
18677;SDS011;9469;51.114;13.914;2024-03-17T01:20:02;8.50;;;3.57;;
18677;SDS011;9469;51.114;13.914;2024-03-17T01:25:07;9.93;;;5.23;;
18677;SDS011;9469;51.114;13.914;2024-03-17T01:30:11;7.07;;;3.57;;
18677;SDS011;9469;51.114;13.914;2024-03-17T01:35:18;4.40;;;3.40;;
18677;SDS011;9469;51.114;13.914;2024-03-17T01:40:23;4.13;;;3.23;;
18677;SDS011;9469;51.114;13.914;2024-03-17T01:45:28;8.23;;;3.17;;
18677;SDS011;9469;51.114;13.914;2024-03-17T01:50:38;5.37;;;3.33;;
18677;SDS011;9469;51.114;13.914;2024-03-17T01:55:43;8.40;;;3.77;;
18677;SDS011;9469;51.114;13.914;2024-03-17T02:00:48;8.93;;;4.23;;
18677;SDS011;9469;51.114;13.914;2024-03-17T02:05:55;6.43;;;3.93;;
18677;SDS011;9469;51.114;13.914;2024-03-17T02:10:59;5.77;;;3.77;;
18677;SDS011;9469;51.114;13.914;2024-03-17T02:16:03;5.00;;;3.57;;
18677;SDS011;9469;51.114;13.914;2024-03-17T02:21:11;8.33;;;3.63;;
18677;SDS011;9469;51.114;13.914;2024-03-17T02:26:18;5.67;;;3.97;;
18677;SDS011;9469;51.114;13.914;2024-03-17T02:31:22;8.10;;;3.70;;
18677;SDS011;9469;51.114;13.914;2024-03-17T02:36:26;8.27;;;4.87;;
18677;SDS011;9469;51.114;13.914;2024-03-17T02:41:32;7.47;;;4.17;;
18677;SDS011;9469;51.114;13.914;2024-03-17T02:46:36;5.83;;;3.83;;
18677;SDS011;9469;51.114;13.914;2024-03-17T02:51:40;6.87;;;3.90;;
18677;SDS011;9469;51.114;13.914;2024-03-17T02:56:47;11.17;;;4.23;;
18677;SDS011;9469;51.114;13.914;2024-03-17T03:01:51;7.33;;;4.30;;
18677;SDS011;9469;51.114;13.914;2024-03-17T03:06:56;8.60;;;3.80;;
18677;SDS011;9469;51.114;13.914;2024-03-17T03:12:03;5.60;;;4.20;;
18677;SDS011;9469;51.114;13.914;2024-03-17T03:17:25;6.80;;;3.93;;
18677;SDS011;9469;51.114;13.914;2024-03-17T03:22:32;6.10;;;3.87;;
18677;SDS011;9469;51.114;13.914;2024-03-17T03:27:39;7.80;;;4.20;;
18677;SDS011;9469;51.114;13.914;2024-03-17T03:32:44;4.87;;;3.63;;
18677;SDS011;9469;51.114;13.914;2024-03-17T03:37:50;6.53;;;4.20;;
18677;SDS011;9469;51.114;13.914;2024-03-17T03:42:57;5.67;;;4.33;;
18677;SDS011;9469;51.114;13.914;2024-03-17T03:48:01;9.63;;;4.27;;
18677;SDS011;9469;51.114;13.914;2024-03-17T03:53:06;9.00;;;4.37;;
18677;SDS011;9469;51.114;13.914;2024-03-17T03:58:13;9.07;;;4.40;;
18677;SDS011;9469;51.114;13.914;2024-03-17T04:03:17;6.63;;;4.63;;
18677;SDS011;9469;51.114;13.914;2024-03-17T04:08:21;7.20;;;4.50;;
18677;SDS011;9469;51.114;13.914;2024-03-17T04:13:28;7.97;;;5.20;;
18677;SDS011;9469;51.114;13.914;2024-03-17T04:18:33;7.23;;;4.77;;
18677;SDS011;9469;51.114;13.914;2024-03-17T04:23:38;8.63;;;6.37;;
18677;SDS011;9469;51.114;13.914;2024-03-17T04:28:45;6.93;;;5.07;;
18677;SDS011;9469;51.114;13.914;2024-03-17T04:33:49;9.30;;;5.30;;
18677;SDS011;9469;51.114;13.914;2024-03-17T04:38:52;9.17;;;5.00;;
18677;SDS011;9469;51.114;13.914;2024-03-17T04:44:00;5.50;;;4.27;;
18677;SDS011;9469;51.114;13.914;2024-03-17T04:49:07;7.67;;;4.40;;
18677;SDS011;9469;51.114;13.914;2024-03-17T04:54:11;9.87;;;5.77;;
18677;SDS011;9469;51.114;13.914;2024-03-17T04:59:20;10.73;;;5.27;;
18677;SDS011;9469;51.114;13.914;2024-03-17T05:04:24;10.97;;;5.30;;
18677;SDS011;9469;51.114;13.914;2024-03-17T05:09:28;8.67;;;4.73;;
18677;SDS011;9469;51.114;13.914;2024-03-17T05:14:35;7.40;;;4.60;;
18677;SDS011;9469;51.114;13.914;2024-03-17T05:19:39;6.33;;;4.23;;
18677;SDS011;9469;51.114;13.914;2024-03-17T05:24:43;7.47;;;4.40;;
18677;SDS011;9469;51.114;13.914;2024-03-17T05:29:50;9.93;;;4.60;;
18677;SDS011;9469;51.114;13.914;2024-03-17T05:34:56;8.57;;;4.10;;
18677;SDS011;9469;51.114;13.914;2024-03-17T05:40:00;10.57;;;4.27;;
18677;SDS011;9469;51.114;13.914;2024-03-17T05:45:07;5.83;;;4.33;;
18677;SDS011;9469;51.114;13.914;2024-03-17T05:50:14;10.93;;;4.77;;
18677;SDS011;9469;51.114;13.914;2024-03-17T05:55:19;8.03;;;4.63;;
18677;SDS011;9469;51.114;13.914;2024-03-17T06:00:25;5.80;;;4.07;;
18677;SDS011;9469;51.114;13.914;2024-03-17T06:05:31;6.97;;;4.20;;
18677;SDS011;9469;51.114;13.914;2024-03-17T06:10:42;6.90;;;4.00;;
18677;SDS011;9469;51.114;13.914;2024-03-17T06:15:49;9.60;;;4.43;;
18677;SDS011;9469;51.114;13.914;2024-03-17T06:20:53;8.43;;;4.10;;
18677;SDS011;9469;51.114;13.914;2024-03-17T06:26:01;11.37;;;4.60;;
18677;SDS011;9469;51.114;13.914;2024-03-17T06:31:09;13.20;;;4.10;;
18677;SDS011;9469;51.114;13.914;2024-03-17T06:36:13;12.07;;;3.73;;
18677;SDS011;9469;51.114;13.914;2024-03-17T06:41:18;10.00;;;4.30;;
18677;SDS011;9469;51.114;13.914;2024-03-17T06:46:24;8.37;;;3.77;;
18677;SDS011;9469;51.114;13.914;2024-03-17T06:51:28;8.50;;;3.70;;
18677;SDS011;9469;51.114;13.914;2024-03-17T06:56:32;6.13;;;2.90;;
18677;SDS011;9469;51.114;13.914;2024-03-17T07:01:39;11.23;;;3.57;;
18677;SDS011;9469;51.114;13.914;2024-03-17T07:06:45;8.27;;;3.27;;
18677;SDS011;9469;51.114;13.914;2024-03-17T07:11:50;7.10;;;3.93;;
18677;SDS011;9469;51.114;13.914;2024-03-17T07:16:57;6.93;;;2.90;;
18677;SDS011;9469;51.114;13.914;2024-03-17T07:22:01;6.03;;;2.90;;
18677;SDS011;9469;51.114;13.914;2024-03-17T07:27:05;6.93;;;2.80;;
18677;SDS011;9469;51.114;13.914;2024-03-17T07:32:16;8.40;;;2.87;;
18677;SDS011;9469;51.114;13.914;2024-03-17T07:37:20;9.37;;;2.83;;
18677;SDS011;9469;51.114;13.914;2024-03-17T07:42:24;12.63;;;3.07;;
18677;SDS011;9469;51.114;13.914;2024-03-17T07:47:32;9.30;;;2.80;;
18677;SDS011;9469;51.114;13.914;2024-03-17T07:52:37;9.27;;;2.87;;
18677;SDS011;9469;51.114;13.914;2024-03-17T07:57:40;9.47;;;2.37;;
18677;SDS011;9469;51.114;13.914;2024-03-17T08:02:48;9.67;;;2.60;;
18677;SDS011;9469;51.114;13.914;2024-03-17T08:07:52;8.07;;;2.40;;
18677;SDS011;9469;51.114;13.914;2024-03-17T08:12:56;8.77;;;2.80;;
18677;SDS011;9469;51.114;13.914;2024-03-17T08:18:02;5.40;;;1.97;;
18677;SDS011;9469;51.114;13.914;2024-03-17T08:23:08;7.00;;;2.70;;
18677;SDS011;9469;51.114;13.914;2024-03-17T08:28:15;10.07;;;2.37;;
18677;SDS011;9469;51.114;13.914;2024-03-17T08:33:22;7.93;;;2.63;;
18677;SDS011;9469;51.114;13.914;2024-03-17T08:38:27;14.50;;;2.93;;
18677;SDS011;9469;51.114;13.914;2024-03-17T08:43:32;6.77;;;2.03;;
18677;SDS011;9469;51.114;13.914;2024-03-17T08:48:40;9.93;;;2.50;;
18677;SDS011;9469;51.114;13.914;2024-03-17T08:53:45;10.37;;;3.00;;
18677;SDS011;9469;51.114;13.914;2024-03-17T08:58:49;13.13;;;2.93;;
18677;SDS011;9469;51.114;13.914;2024-03-17T09:03:55;9.47;;;2.47;;
18677;SDS011;9469;51.114;13.914;2024-03-17T09:09:01;12.43;;;2.87;;
18677;SDS011;9469;51.114;13.914;2024-03-17T09:14:06;13.13;;;2.93;;
18677;SDS011;9469;51.114;13.914;2024-03-17T09:19:14;8.97;;;2.40;;
18677;SDS011;9469;51.114;13.914;2024-03-17T09:24:19;9.00;;;2.87;;
18677;SDS011;9469;51.114;13.914;2024-03-17T09:29:23;8.60;;;2.50;;
18677;SDS011;9469;51.114;13.914;2024-03-17T09:34:29;9.70;;;2.37;;
18677;SDS011;9469;51.114;13.914;2024-03-17T09:39:34;10.33;;;2.50;;
18677;SDS011;9469;51.114;13.914;2024-03-17T09:44:39;6.90;;;2.20;;
18677;SDS011;9469;51.114;13.914;2024-03-17T09:49:46;8.90;;;2.10;;
18677;SDS011;9469;51.114;13.914;2024-03-17T09:54:53;3.93;;;2.03;;
18677;SDS011;9469;51.114;13.914;2024-03-17T10:00:04;7.97;;;2.17;;
18677;SDS011;9469;51.114;13.914;2024-03-17T10:05:23;7.90;;;2.20;;
18677;SDS011;9469;51.114;13.914;2024-03-17T10:10:27;5.03;;;2.03;;
18677;SDS011;9469;51.114;13.914;2024-03-17T10:15:31;7.03;;;2.53;;
18677;SDS011;9469;51.114;13.914;2024-03-17T10:20:38;3.80;;;2.10;;
18677;SDS011;9469;51.114;13.914;2024-03-17T10:25:42;6.57;;;1.77;;
18677;SDS011;9469;51.114;13.914;2024-03-17T10:30:56;5.00;;;1.80;;
18677;SDS011;9469;51.114;13.914;2024-03-17T10:36:04;3.43;;;1.83;;
18677;SDS011;9469;51.114;13.914;2024-03-17T10:41:08;7.50;;;2.10;;
18677;SDS011;9469;51.114;13.914;2024-03-17T10:46:14;5.93;;;1.87;;
18677;SDS011;9469;51.114;13.914;2024-03-17T10:51:21;5.57;;;2.00;;
18677;SDS011;9469;51.114;13.914;2024-03-17T10:56:25;7.00;;;2.10;;
18677;SDS011;9469;51.114;13.914;2024-03-17T11:01:30;6.13;;;2.13;;
18677;SDS011;9469;51.114;13.914;2024-03-17T11:06:36;5.37;;;2.07;;
18677;SDS011;9469;51.114;13.914;2024-03-17T11:11:41;6.00;;;2.50;;
18677;SDS011;9469;51.114;13.914;2024-03-17T11:16:45;7.43;;;2.57;;
18677;SDS011;9469;51.114;13.914;2024-03-17T11:21:53;5.80;;;1.90;;
18677;SDS011;9469;51.114;13.914;2024-03-17T11:26:57;3.73;;;2.00;;
18677;SDS011;9469;51.114;13.914;2024-03-17T11:32:02;4.63;;;1.83;;
18677;SDS011;9469;51.114;13.914;2024-03-17T11:37:43;4.73;;;2.57;;
18677;SDS011;9469;51.114;13.914;2024-03-17T11:43:00;4.80;;;2.00;;
18677;SDS011;9469;51.114;13.914;2024-03-17T11:48:06;6.83;;;2.27;;
18677;SDS011;9469;51.114;13.914;2024-03-17T11:53:20;3.83;;;2.07;;
18677;SDS011;9469;51.114;13.914;2024-03-17T11:58:24;3.37;;;2.40;;
18677;SDS011;9469;51.114;13.914;2024-03-17T12:03:28;6.63;;;2.53;;
18677;SDS011;9469;51.114;13.914;2024-03-17T12:08:34;6.53;;;2.10;;
18677;SDS011;9469;51.114;13.914;2024-03-17T12:13:38;7.33;;;2.07;;
18677;SDS011;9469;51.114;13.914;2024-03-17T12:18:42;5.13;;;2.30;;
18677;SDS011;9469;51.114;13.914;2024-03-17T12:23:50;6.80;;;2.63;;
18677;SDS011;9469;51.114;13.914;2024-03-17T12:28:54;5.97;;;2.47;;
18677;SDS011;9469;51.114;13.914;2024-03-17T12:33:58;8.17;;;2.70;;
18677;SDS011;9469;51.114;13.914;2024-03-17T12:39:12;6.23;;;2.27;;
18677;SDS011;9469;51.114;13.914;2024-03-17T12:44:21;7.20;;;2.30;;
18677;SDS011;9469;51.114;13.914;2024-03-17T12:49:26;7.93;;;2.27;;
18677;SDS011;9469;51.114;13.914;2024-03-17T12:54:32;8.00;;;2.73;;
18677;SDS011;9469;51.114;13.914;2024-03-17T12:59:40;5.73;;;2.33;;
18677;SDS011;9469;51.114;13.914;2024-03-17T13:10:24;4.50;;;2.90;;
18677;SDS011;9469;51.114;13.914;2024-03-17T13:15:34;9.17;;;2.67;;
18677;SDS011;9469;51.114;13.914;2024-03-17T13:20:38;6.60;;;2.43;;
18677;SDS011;9469;51.114;13.914;2024-03-17T13:25:45;5.90;;;2.43;;
18677;SDS011;9469;51.114;13.914;2024-03-17T13:30:49;4.97;;;2.07;;
18677;SDS011;9469;51.114;13.914;2024-03-17T13:35:54;8.57;;;2.90;;
18677;SDS011;9469;51.114;13.914;2024-03-17T13:41:06;7.40;;;2.30;;
18677;SDS011;9469;51.114;13.914;2024-03-17T13:46:18;6.07;;;2.33;;
18677;SDS011;9469;51.114;13.914;2024-03-17T13:51:23;6.00;;;2.57;;
18677;SDS011;9469;51.114;13.914;2024-03-17T13:56:30;6.00;;;2.70;;
18677;SDS011;9469;51.114;13.914;2024-03-17T14:01:34;8.50;;;2.53;;
18677;SDS011;9469;51.114;13.914;2024-03-17T14:06:38;6.77;;;2.53;;
18677;SDS011;9469;51.114;13.914;2024-03-17T14:11:46;4.83;;;2.30;;
18677;SDS011;9469;51.114;13.914;2024-03-17T14:16:51;5.47;;;2.70;;
18677;SDS011;9469;51.114;13.914;2024-03-17T14:21:55;4.83;;;2.60;;
18677;SDS011;9469;51.114;13.914;2024-03-17T14:27:02;6.10;;;2.97;;
18677;SDS011;9469;51.114;13.914;2024-03-17T14:32:06;6.00;;;2.70;;
18677;SDS011;9469;51.114;13.914;2024-03-17T14:37:10;5.70;;;2.30;;
18677;SDS011;9469;51.114;13.914;2024-03-17T14:42:17;6.90;;;2.87;;
18677;SDS011;9469;51.114;13.914;2024-03-17T14:47:21;7.40;;;2.40;;
18677;SDS011;9469;51.114;13.914;2024-03-17T14:52:25;8.43;;;2.57;;
18677;SDS011;9469;51.114;13.914;2024-03-17T14:57:32;7.27;;;2.60;;
18677;SDS011;9469;51.114;13.914;2024-03-17T15:02:37;3.90;;;2.43;;
18677;SDS011;9469;51.114;13.914;2024-03-17T15:07:41;11.03;;;2.97;;
18677;SDS011;9469;51.114;13.914;2024-03-17T15:12:48;7.00;;;2.63;;
18677;SDS011;9469;51.114;13.914;2024-03-17T15:17:54;5.20;;;2.97;;
18677;SDS011;9469;51.114;13.914;2024-03-17T15:22:58;6.10;;;2.93;;
18677;SDS011;9469;51.114;13.914;2024-03-17T15:28:06;4.90;;;2.37;;
18677;SDS011;9469;51.114;13.914;2024-03-17T15:33:12;5.50;;;3.17;;
18677;SDS011;9469;51.114;13.914;2024-03-17T15:38:16;7.50;;;2.40;;
18677;SDS011;9469;51.114;13.914;2024-03-17T15:43:25;5.77;;;2.53;;
18677;SDS011;9469;51.114;13.914;2024-03-17T15:48:32;5.57;;;2.33;;
18677;SDS011;9469;51.114;13.914;2024-03-17T15:53:36;6.63;;;2.70;;
18677;SDS011;9469;51.114;13.914;2024-03-17T15:58:45;4.83;;;2.53;;
18677;SDS011;9469;51.114;13.914;2024-03-17T16:03:49;5.83;;;2.87;;
18677;SDS011;9469;51.114;13.914;2024-03-17T16:08:54;7.67;;;2.83;;
18677;SDS011;9469;51.114;13.914;2024-03-17T16:14:01;7.17;;;2.77;;
18677;SDS011;9469;51.114;13.914;2024-03-17T16:19:05;6.57;;;2.53;;
18677;SDS011;9469;51.114;13.914;2024-03-17T16:24:10;9.10;;;2.90;;
18677;SDS011;9469;51.114;13.914;2024-03-17T16:29:19;5.10;;;2.43;;
18677;SDS011;9469;51.114;13.914;2024-03-17T16:34:24;8.23;;;2.53;;
18677;SDS011;9469;51.114;13.914;2024-03-17T16:39:34;5.17;;;3.00;;
18677;SDS011;9469;51.114;13.914;2024-03-17T16:44:43;7.53;;;2.70;;
18677;SDS011;9469;51.114;13.914;2024-03-17T16:49:57;5.27;;;2.83;;
18677;SDS011;9469;51.114;13.914;2024-03-17T16:55:06;7.03;;;3.33;;
18677;SDS011;9469;51.114;13.914;2024-03-17T17:00:15;8.20;;;2.87;;
18677;SDS011;9469;51.114;13.914;2024-03-17T17:05:20;7.47;;;3.20;;
18677;SDS011;9469;51.114;13.914;2024-03-17T17:10:24;9.40;;;3.47;;
18677;SDS011;9469;51.114;13.914;2024-03-17T17:15:31;9.93;;;5.47;;
18677;SDS011;9469;51.114;13.914;2024-03-17T17:20:35;10.20;;;4.47;;
18677;SDS011;9469;51.114;13.914;2024-03-17T17:25:39;8.67;;;4.20;;
18677;SDS011;9469;51.114;13.914;2024-03-17T17:30:46;8.30;;;3.23;;
18677;SDS011;9469;51.114;13.914;2024-03-17T17:35:50;9.80;;;4.10;;
18677;SDS011;9469;51.114;13.914;2024-03-17T17:40:57;7.03;;;3.13;;
18677;SDS011;9469;51.114;13.914;2024-03-17T17:46:09;10.23;;;3.73;;
18677;SDS011;9469;51.114;13.914;2024-03-17T17:51:16;12.27;;;3.83;;
18677;SDS011;9469;51.114;13.914;2024-03-17T17:56:22;10.50;;;4.40;;
18677;SDS011;9469;51.114;13.914;2024-03-17T18:01:31;20.27;;;5.70;;
18677;SDS011;9469;51.114;13.914;2024-03-17T18:06:35;12.63;;;6.63;;
18677;SDS011;9469;51.114;13.914;2024-03-17T18:11:40;12.07;;;4.00;;
18677;SDS011;9469;51.114;13.914;2024-03-17T18:16:47;10.73;;;3.90;;
18677;SDS011;9469;51.114;13.914;2024-03-17T18:21:51;20.00;;;11.50;;
18677;SDS011;9469;51.114;13.914;2024-03-17T18:26:56;23.73;;;14.77;;
18677;SDS011;9469;51.114;13.914;2024-03-17T18:32:05;23.70;;;13.20;;
18677;SDS011;9469;51.114;13.914;2024-03-17T18:37:13;9.97;;;5.30;;
18677;SDS011;9469;51.114;13.914;2024-03-17T18:42:18;14.90;;;6.70;;
18677;SDS011;9469;51.114;13.914;2024-03-17T18:47:26;13.50;;;7.97;;
18677;SDS011;9469;51.114;13.914;2024-03-17T18:52:30;15.17;;;8.77;;
18677;SDS011;9469;51.114;13.914;2024-03-17T18:57:34;14.93;;;8.40;;
18677;SDS011;9469;51.114;13.914;2024-03-17T19:02:42;16.37;;;9.27;;
18677;SDS011;9469;51.114;13.914;2024-03-17T19:07:48;14.87;;;8.73;;
18677;SDS011;9469;51.114;13.914;2024-03-17T19:12:53;16.83;;;7.60;;
18677;SDS011;9469;51.114;13.914;2024-03-17T19:17:59;22.63;;;9.67;;
18677;SDS011;9469;51.114;13.914;2024-03-17T19:23:03;17.70;;;9.53;;
18677;SDS011;9469;51.114;13.914;2024-03-17T19:28:07;8.83;;;5.73;;
18677;SDS011;9469;51.114;13.914;2024-03-17T19:33:21;9.03;;;5.90;;
18677;SDS011;9469;51.114;13.914;2024-03-17T19:38:27;8.23;;;4.93;;
18677;SDS011;9469;51.114;13.914;2024-03-17T19:43:32;18.60;;;11.10;;
18677;SDS011;9469;51.114;13.914;2024-03-17T19:48:44;11.43;;;10.07;;
18677;SDS011;9469;51.114;13.914;2024-03-17T19:53:50;11.93;;;6.53;;
18677;SDS011;9469;51.114;13.914;2024-03-17T19:58:55;14.40;;;8.10;;
18677;SDS011;9469;51.114;13.914;2024-03-17T20:04:04;37.77;;;25.60;;
18677;SDS011;9469;51.114;13.914;2024-03-17T20:09:11;64.93;;;37.63;;
18677;SDS011;9469;51.114;13.914;2024-03-17T20:14:16;21.37;;;12.53;;
18677;SDS011;9469;51.114;13.914;2024-03-17T20:19:23;31.30;;;18.80;;
18677;SDS011;9469;51.114;13.914;2024-03-17T20:24:27;47.50;;;34.30;;
18677;SDS011;9469;51.114;13.914;2024-03-17T20:29:31;21.30;;;11.67;;
18677;SDS011;9469;51.114;13.914;2024-03-17T20:34:39;12.70;;;7.27;;
18677;SDS011;9469;51.114;13.914;2024-03-17T20:39:45;8.47;;;5.40;;
18677;SDS011;9469;51.114;13.914;2024-03-17T20:44:50;11.70;;;5.17;;
18677;SDS011;9469;51.114;13.914;2024-03-17T20:49:58;9.27;;;5.53;;
18677;SDS011;9469;51.114;13.914;2024-03-17T20:55:02;10.20;;;6.10;;
18677;SDS011;9469;51.114;13.914;2024-03-17T21:00:06;15.60;;;5.97;;
18677;SDS011;9469;51.114;13.914;2024-03-17T21:05:23;11.20;;;5.43;;
18677;SDS011;9469;51.114;13.914;2024-03-17T21:10:29;8.40;;;5.27;;
18677;SDS011;9469;51.114;13.914;2024-03-17T21:15:33;11.93;;;5.50;;
18677;SDS011;9469;51.114;13.914;2024-03-17T21:20:40;8.83;;;4.37;;
18677;SDS011;9469;51.114;13.914;2024-03-17T21:25:45;10.67;;;4.20;;
18677;SDS011;9469;51.114;13.914;2024-03-17T21:30:57;7.03;;;3.93;;
18677;SDS011;9469;51.114;13.914;2024-03-17T21:36:08;7.50;;;4.87;;
18677;SDS011;9469;51.114;13.914;2024-03-17T21:41:13;12.87;;;6.23;;
18677;SDS011;9469;51.114;13.914;2024-03-17T21:46:20;10.73;;;5.83;;
18677;SDS011;9469;51.114;13.914;2024-03-17T21:51:29;12.63;;;8.47;;
18677;SDS011;9469;51.114;13.914;2024-03-17T21:56:36;18.33;;;10.30;;
18677;SDS011;9469;51.114;13.914;2024-03-17T22:01:40;18.17;;;10.00;;
18677;SDS011;9469;51.114;13.914;2024-03-17T22:06:46;19.67;;;11.43;;
18677;SDS011;9469;51.114;13.914;2024-03-17T22:11:50;16.60;;;10.60;;
18677;SDS011;9469;51.114;13.914;2024-03-17T22:16:54;13.87;;;9.20;;
18677;SDS011;9469;51.114;13.914;2024-03-17T22:22:02;16.33;;;9.23;;
18677;SDS011;9469;51.114;13.914;2024-03-17T22:27:06;17.33;;;8.73;;
18677;SDS011;9469;51.114;13.914;2024-03-17T22:32:10;13.90;;;6.50;;
18677;SDS011;9469;51.114;13.914;2024-03-17T22:37:17;13.53;;;6.93;;
18677;SDS011;9469;51.114;13.914;2024-03-17T22:42:21;12.43;;;6.13;;
18677;SDS011;9469;51.114;13.914;2024-03-17T22:47:25;9.87;;;5.30;;
18677;SDS011;9469;51.114;13.914;2024-03-17T22:52:32;11.00;;;5.03;;
18677;SDS011;9469;51.114;13.914;2024-03-17T22:57:36;9.53;;;5.43;;
18677;SDS011;9469;51.114;13.914;2024-03-17T23:02:40;11.07;;;6.23;;
18677;SDS011;9469;51.114;13.914;2024-03-17T23:07:48;10.83;;;5.13;;
18677;SDS011;9469;51.114;13.914;2024-03-17T23:12:52;10.77;;;5.17;;
18677;SDS011;9469;51.114;13.914;2024-03-17T23:17:56;9.67;;;5.20;;
18677;SDS011;9469;51.114;13.914;2024-03-17T23:23:03;8.27;;;5.47;;
18677;SDS011;9469;51.114;13.914;2024-03-17T23:28:08;9.97;;;6.23;;
18677;SDS011;9469;51.114;13.914;2024-03-17T23:33:13;15.73;;;5.73;;
18677;SDS011;9469;51.114;13.914;2024-03-17T23:38:20;13.80;;;6.17;;
18677;SDS011;9469;51.114;13.914;2024-03-17T23:43:24;13.87;;;6.40;;
18677;SDS011;9469;51.114;13.914;2024-03-17T23:48:28;13.93;;;6.30;;
18677;SDS011;9469;51.114;13.914;2024-03-17T23:53:35;13.73;;;5.07;;
18677;SDS011;9469;51.114;13.914;2024-03-17T23:58:39;8.57;;;4.60;;
